Time;durP1;ratioP1;P1;durP2;ratioP2;P2;SDS_P1;SDS_P2;PMS_P1;PMS_P2;Temp;Humidity;BMP_temperature;BMP_pressure;BME280_temperature;BME280_humidity;BME280_pressure;Samples;Min_cycle;Max_cycle;Signal;HPM_P1;HPM_P2
2022/05/25 00:01:32;;;;;;;1.45;0.47;;;;;;;;;;4929937;28;20039;-87
2022/05/25 00:03:58;;;;;;;0.20;0.10;;;;;;;;;;4924767;28;20078;-87
2022/05/25 00:06:25;;;;;;;0.20;0.00;;;;;;;;;;4957693;28;20106;-87
2022/05/25 00:08:51;;;;;;;0.20;0.10;;;;;;;;;;4935073;28;20051;-88
2022/05/25 00:11:17;;;;;;;0.20;0.10;;;;;;;;;;4958299;28;20043;-87
2022/05/25 00:13:43;;;;;;;0.20;0.10;;;;;;;;;;4939700;28;20090;-88
2022/05/25 00:16:09;;;;;;;0.20;0.10;;;;;;;;;;4955717;28;20039;-88
2022/05/25 00:18:35;;;;;;;0.20;0.08;;;;;;;;;;4924547;28;20069;-87
2022/05/25 00:21:01;;;;;;;0.20;0.10;;;;;;;;;;4931068;28;20043;-86
2022/05/25 00:23:27;;;;;;;0.55;0.20;;;;;;;;;;4941468;28;20260;-87
2022/05/25 00:25:53;;;;;;;0.30;0.10;;;;;;;;;;4927108;28;20492;-86
2022/05/25 00:28:20;;;;;;;0.20;0.10;;;;;;;;;;4938552;28;20046;-88
2022/05/25 00:30:47;;;;;;;0.20;0.10;;;;;;;;;;4948334;28;20134;-86
2022/05/25 00:33:13;;;;;;;0.20;0.10;;;;;;;;;;4956153;28;20039;-87
2022/05/25 00:35:40;;;;;;;0.20;0.10;;;;;;;;;;4959835;28;20066;-86
2022/05/25 00:38:07;;;;;;;0.20;0.10;;;;;;;;;;4942744;28;20031;-87
2022/05/25 00:40:36;;;;;;;0.30;0.20;;;;;;;;;;4936745;28;20046;-87
2022/05/25 00:43:03;;;;;;;0.43;0.15;;;;;;;;;;4960576;28;20125;-87
2022/05/25 00:45:34;;;;;;;0.30;0.20;;;;;;;;;;4943538;28;20102;-87
2022/05/25 00:48:00;;;;;;;0.20;0.10;;;;;;;;;;4940464;28;20050;-87
2022/05/25 00:51:11;;;;;;;0.20;0.10;;;;;;;;;;4954397;28;20035;-87
2022/05/25 00:53:13;;;;;;;0.20;0.10;;;;;;;;;;4975087;28;20057;-87
2022/05/25 00:55:39;;;;;;;0.20;0.10;;;;;;;;;;4950687;28;20035;-87
2022/05/25 00:58:06;;;;;;;0.20;0.05;;;;;;;;;;4921887;28;20175;-87
2022/05/25 01:00:32;;;;;;;0.20;0.10;;;;;;;;;;4939401;28;20043;-87
2022/05/25 01:03:08;;;;;;;0.47;0.32;;;;;;;;;;4928619;28;20050;-86
2022/05/25 01:05:58;;;;;;;0.77;0.20;;;;;;;;;;4955128;28;20423;-88
2022/05/25 01:08:42;;;;;;;0.20;0.10;;;;;;;;;;4939070;28;20051;-87
2022/05/25 01:11:17;;;;;;;0.20;0.00;;;;;;;;;;4950696;28;20121;-87
2022/05/25 01:13:59;;;;;;;0.20;0.20;;;;;;;;;;4951221;28;20233;-86
2022/05/25 01:16:43;;;;;;;0.20;0.13;;;;;;;;;;4955852;28;20042;-86
2022/05/25 01:19:23;;;;;;;0.20;0.00;;;;;;;;;;4941863;28;20145;-87
2022/05/25 01:21:58;;;;;;;0.20;0.10;;;;;;;;;;4942095;28;20444;-85
2022/05/25 01:24:42;;;;;;;0.20;0.10;;;;;;;;;;4956095;28;20031;-87
2022/05/25 01:27:27;;;;;;;0.20;0.10;;;;;;;;;;4959731;28;20431;-87
2022/05/25 01:30:06;;;;;;;0.20;0.08;;;;;;;;;;4943555;28;20042;-86
2022/05/25 01:32:46;;;;;;;0.20;0.10;;;;;;;;;;4958392;28;20067;-86
2022/05/25 01:35:21;;;;;;;0.20;0.10;;;;;;;;;;4941751;28;20492;-87
2022/05/25 01:37:59;;;;;;;0.30;0.20;;;;;;;;;;4953699;28;20138;-87
2022/05/25 01:40:31;;;;;;;0.20;0.10;;;;;;;;;;4958202;28;20111;-87
2022/05/25 01:43:15;;;;;;;0.20;0.10;;;;;;;;;;4958161;28;20043;-87
2022/05/25 01:45:44;;;;;;;0.20;0.10;;;;;;;;;;4939890;28;20505;-87
2022/05/25 01:48:11;;;;;;;0.20;0.15;;;;;;;;;;4962732;28;20290;-86
2022/05/25 01:50:57;;;;;;;0.20;0.10;;;;;;;;;;4925845;28;20031;-86
2022/05/25 01:53:29;;;;;;;0.20;0.17;;;;;;;;;;4954151;28;20039;-88
2022/05/25 01:55:57;;;;;;;0.73;0.17;;;;;;;;;;4962354;28;20407;-86
2022/05/25 01:58:25;;;;;;;0.28;0.20;;;;;;;;;;4946054;28;20035;-87
2022/05/25 02:00:52;;;;;;;0.20;0.10;;;;;;;;;;4946390;28;20044;-87
2022/05/25 02:06:04;;;;;;;0.20;0.10;;;;;;;;;;4953320;28;20390;-87
2022/05/25 02:08:36;;;;;;;0.20;0.00;;;;;;;;;;4957833;28;20125;-87
2022/05/25 02:11:13;;;;;;;0.30;0.20;;;;;;;;;;4960027;28;20038;-86
2022/05/25 02:13:39;;;;;;;0.20;0.10;;;;;;;;;;4938206;28;20089;-86
2022/05/25 02:16:16;;;;;;;1.60;0.30;;;;;;;;;;4941118;28;20046;-86
2022/05/25 02:18:42;;;;;;;0.20;0.10;;;;;;;;;;4962639;28;20130;-87
2022/05/25 02:21:08;;;;;;;0.20;0.10;;;;;;;;;;4949662;28;20034;-86
2022/05/25 02:23:47;;;;;;;0.20;0.20;;;;;;;;;;4951501;28;20114;-86
2022/05/25 02:26:17;;;;;;;0.20;0.10;;;;;;;;;;4955764;28;20048;-87
2022/05/25 02:29:09;;;;;;;0.20;0.08;;;;;;;;;;4954540;28;20055;-87
2022/05/25 02:31:38;;;;;;;0.20;0.10;;;;;;;;;;4940729;28;20050;-87
2022/05/25 02:34:06;;;;;;;0.20;0.10;;;;;;;;;;4955997;28;20039;-87
2022/05/25 02:36:37;;;;;;;0.20;0.10;;;;;;;;;;4949969;28;20050;-87
2022/05/25 02:39:07;;;;;;;0.20;0.00;;;;;;;;;;4963053;28;20038;-87
2022/05/25 02:41:35;;;;;;;0.30;0.20;;;;;;;;;;4957274;28;20039;-87
2022/05/25 02:44:02;;;;;;;0.20;0.08;;;;;;;;;;4941541;28;20038;-87
2022/05/25 02:46:28;;;;;;;0.20;0.10;;;;;;;;;;4941279;28;20074;-87
2022/05/25 02:48:54;;;;;;;0.20;0.10;;;;;;;;;;4936684;28;20030;-87
2022/05/25 02:51:20;;;;;;;0.20;0.00;;;;;;;;;;4939833;28;20118;-87
2022/05/25 02:53:46;;;;;;;0.20;0.00;;;;;;;;;;4960880;28;20062;-87
2022/05/25 02:56:13;;;;;;;0.20;0.10;;;;;;;;;;4921316;28;20058;-87
2022/05/25 02:58:39;;;;;;;0.20;0.10;;;;;;;;;;4943017;28;20126;-87
2022/05/25 03:01:05;;;;;;;0.20;0.10;;;;;;;;;;4929346;28;20396;-87
2022/05/25 03:03:35;;;;;;;0.20;0.10;;;;;;;;;;4948557;28;20043;-87
2022/05/25 03:06:02;;;;;;;0.20;0.03;;;;;;;;;;4971203;28;20503;-87
2022/05/25 03:08:28;;;;;;;0.20;0.10;;;;;;;;;;4955798;28;20455;-87
2022/05/25 03:10:54;;;;;;;0.30;0.30;;;;;;;;;;4936849;28;20070;-87
2022/05/25 03:13:20;;;;;;;0.20;0.10;;;;;;;;;;4951596;28;20043;-87
2022/05/25 03:15:46;;;;;;;0.20;0.10;;;;;;;;;;4941327;28;20531;-88
2022/05/25 03:18:12;;;;;;;0.20;0.10;;;;;;;;;;4931588;28;20034;-87
2022/05/25 03:20:38;;;;;;;0.30;0.20;;;;;;;;;;4954321;28;20084;-87
2022/05/25 03:23:04;;;;;;;0.20;0.10;;;;;;;;;;4950224;28;20054;-86
2022/05/25 03:25:30;;;;;;;0.20;0.10;;;;;;;;;;4925710;28;20027;-87
2022/05/25 03:27:57;;;;;;;0.20;0.10;;;;;;;;;;4941996;28;20381;-87
2022/05/25 03:30:23;;;;;;;0.20;0.15;;;;;;;;;;4940387;28;20042;-87
2022/05/25 03:32:50;;;;;;;2.70;0.85;;;;;;;;;;4956446;28;20034;-87
2022/05/25 03:35:16;;;;;;;0.90;0.40;;;;;;;;;;4938186;28;20175;-87
2022/05/25 03:37:43;;;;;;;0.20;0.10;;;;;;;;;;4953003;28;20690;-87
2022/05/25 03:40:10;;;;;;;0.20;0.10;;;;;;;;;;4954371;28;20046;-86
2022/05/25 03:42:37;;;;;;;0.20;0.10;;;;;;;;;;4942972;28;20042;-86
2022/05/25 03:45:04;;;;;;;0.20;0.10;;;;;;;;;;4938138;28;20324;-86
2022/05/25 03:47:33;;;;;;;0.20;0.10;;;;;;;;;;4959474;28;20518;-87
2022/05/25 03:49:59;;;;;;;0.20;0.10;;;;;;;;;;4941650;28;20259;-87
2022/05/25 03:52:26;;;;;;;2.65;0.55;;;;;;;;;;4954312;28;20035;-87
2022/05/25 03:54:52;;;;;;;0.30;0.20;;;;;;;;;;4936837;28;20073;-87
2022/05/25 03:57:19;;;;;;;0.20;0.20;;;;;;;;;;4953669;28;20043;-86
2022/05/25 03:59:46;;;;;;;0.20;0.10;;;;;;;;;;4957875;28;20193;-88
2022/05/25 04:02:12;;;;;;;0.20;0.10;;;;;;;;;;4924322;28;20208;-87
2022/05/25 04:04:38;;;;;;;0.20;0.10;;;;;;;;;;4922378;28;20560;-87
2022/05/25 04:07:04;;;;;;;0.20;0.10;;;;;;;;;;4928346;28;20046;-88
2022/05/25 04:09:30;;;;;;;0.20;0.10;;;;;;;;;;4926843;28;20043;-89
2022/05/25 04:11:57;;;;;;;0.20;0.10;;;;;;;;;;4957136;28;20070;-86
2022/05/25 04:14:23;;;;;;;0.20;0.10;;;;;;;;;;4926002;28;20097;-87
2022/05/25 04:16:50;;;;;;;0.20;0.15;;;;;;;;;;4953873;28;20035;-87
2022/05/25 04:19:16;;;;;;;0.40;0.30;;;;;;;;;;4943161;28;20043;-88
2022/05/25 04:21:42;;;;;;;0.20;0.10;;;;;;;;;;4935446;28;20054;-85
2022/05/25 04:24:08;;;;;;;0.20;0.13;;;;;;;;;;4922126;28;20043;-87
2022/05/25 04:26:35;;;;;;;0.20;0.10;;;;;;;;;;4939027;28;20050;-87
2022/05/25 04:29:01;;;;;;;0.65;0.30;;;;;;;;;;4939499;28;20038;-86
2022/05/25 04:31:27;;;;;;;0.20;0.10;;;;;;;;;;4930662;28;20506;-87
2022/05/25 04:33:54;;;;;;;0.68;0.32;;;;;;;;;;4958646;28;20042;-87
2022/05/25 04:36:20;;;;;;;0.25;0.15;;;10.80;99.90;;;;;;4957081;28;20047;-86
2022/05/25 04:38:46;;;;;;;0.20;0.10;;;9.60;99.90;;;;;;4937425;28;20047;-87
2022/05/25 04:41:12;;;;;;;0.57;0.30;;;9.60;99.90;;;;;;4959413;28;20351;-87
2022/05/25 04:43:38;;;;;;;0.20;0.10;;;;;;;;;;4956183;28;20766;-86
2022/05/25 04:46:09;;;;;;;0.73;0.57;;;;;;;;;;4949412;28;20660;-84
2022/05/25 04:48:35;;;;;;;0.20;0.08;;;;;;;;;;4948730;28;20296;-86
2022/05/25 04:51:01;;;;;;;0.20;0.10;;;;;;;;;;4931757;28;20050;-86
2022/05/25 04:53:27;;;;;;;0.20;0.10;;;;;;;;;;4921401;28;20172;-87
2022/05/25 04:58:40;;;;;;;0.20;0.10;;;;;;;;;;4951868;28;20055;-87
2022/05/25 05:01:08;;;;;;;0.20;0.13;;;9.60;99.90;;;;;;4938511;28;20043;-88
2022/05/25 05:03:34;;;;;;;0.20;0.10;;;10.10;99.90;;;;;;4936599;28;20067;-86
2022/05/25 05:06:01;;;;;;;0.32;0.32;;;10.20;99.90;;;;;;4916243;28;20058;-86
2022/05/25 05:08:27;;;;;;;0.20;0.10;;;;;;;;;;4923896;28;20042;-86
2022/05/25 05:10:54;;;;;;;0.73;0.40;;;;;;;;;;4965255;28;20399;-86
2022/05/25 05:13:20;;;;;;;0.20;0.10;;;;;;;;;;4952619;28;20051;-86
2022/05/25 05:15:51;;;;;;;1.08;0.55;;;;;;;;;;4956542;28;20137;-87
2022/05/25 05:18:18;;;;;;;0.30;0.20;;;;;;;;;;4956834;28;20042;-87
2022/05/25 05:20:44;;;;;;;0.20;0.20;;;;;;;;;;4963137;28;20472;-88
2022/05/25 05:23:10;;;;;;;0.70;0.30;;;;;;;;;;4918073;28;20065;-86
2022/05/25 05:25:37;;;;;;;0.20;0.10;;;;;;;;;;4938682;28;20538;-86
2022/05/25 05:28:08;;;;;;;0.43;0.30;;;;;;;;;;4961451;28;20058;-86
2022/05/25 05:30:36;;;;;;;0.35;0.32;;;;;;;;;;4953875;28;20031;-86
2022/05/25 05:33:02;;;;;;;3.28;0.40;;;10.30;99.90;;;;;;4940733;28;20169;-86
2022/05/25 05:35:29;;;;;;;1.50;0.30;;;;;;;;;;4917788;28;20139;-85
2022/05/25 05:37:55;;;;;;;0.28;0.13;;;;;;;;;;4937302;28;20539;-86
2022/05/25 05:40:22;;;;;;;8.90;0.77;;;;;;;;;;4945117;28;20102;-87
2022/05/25 05:42:49;;;;;;;0.30;0.15;;;;;;;;;;4945240;28;20285;-86
2022/05/25 05:45:21;;;;;;;0.22;0.17;;;;;;;;;;4945634;28;20130;-86
2022/05/25 05:47:51;;;;;;;0.20;0.13;;;;;;;;;;4955475;28;20043;-87
2022/05/25 05:50:18;;;;;;;0.40;0.40;;;;;;;;;;4960765;28;20035;-86
2022/05/25 05:52:44;;;;;;;0.30;0.20;;;;;;;;;;4964232;28;20134;-87
2022/05/25 05:55:11;;;;;;;0.22;0.20;;;;;;;;;;4943418;28;20071;-86
2022/05/25 05:57:37;;;;;;;0.38;0.38;;;;;;;;;;4944415;28;20053;-86
2022/05/25 06:00:05;;;;;;;0.20;0.10;;;;;;;;;;4963586;28;20031;-86
2022/05/25 06:02:31;;;;;;;0.20;0.10;;;;;;;;;;4943274;28;20127;-87
2022/05/25 06:05:06;;;;;;;0.20;0.10;;;;;;;;;;4943116;28;20075;-88
2022/05/25 06:07:33;;;;;;;0.28;0.25;;;;;;;;;;4945239;28;20117;-88
2022/05/25 06:09:59;;;;;;;1.98;0.88;;;;;;;;;;4943123;28;20050;-86
2022/05/25 06:12:27;;;;;;;0.20;0.15;;;;;;;;;;4951656;28;20443;-84
2022/05/25 06:14:53;;;;;;;0.30;0.28;;;;;;;;;;4964804;28;20488;-88
2022/05/25 06:20:05;;;;;;;0.20;0.10;;;;;;;;;;4961751;28;20043;-86
2022/05/25 06:22:32;;;;;;;0.57;0.15;;;;;;;;;;4960494;28;20129;-89
2022/05/25 06:24:59;;;;;;;0.20;0.10;;;;;;;;;;4948582;28;20038;-87
2022/05/25 06:27:25;;;;;;;0.28;0.22;;;;;;;;;;4928801;28;20039;-85
2022/05/25 06:29:52;;;;;;;0.57;0.30;;;;;;;;;;4958734;28;20263;-85
2022/05/25 06:32:23;;;;;;;0.68;0.57;;;;;;;;;;4945227;28;20057;-87
2022/05/25 06:34:50;;;;;;;0.25;0.25;;;;;;;;;;4959563;28;20468;-86
2022/05/25 06:37:22;;;;;;;0.20;0.20;;;11.20;99.90;;;;;;4957727;28;20049;-85
2022/05/25 06:39:48;;;;;;;0.50;0.28;;;;;;;;;;4950424;28;20294;-86
2022/05/25 06:42:14;;;;;;;1.23;0.73;;;;;;;;;;4945476;28;20055;-86
2022/05/25 06:44:42;;;;;;;1.85;0.40;;;;;;;;;;4944975;28;20047;-87
2022/05/25 06:47:08;;;;;;;0.77;0.65;;;;;;;;;;4933707;28;20095;-86
2022/05/25 06:49:34;;;;;;;0.50;0.30;;;;;;;;;;4954293;28;20066;-86
2022/05/25 06:52:00;;;;;;;0.75;0.28;;;;;;;;;;4965810;28;20046;-85
2022/05/25 06:54:26;;;;;;;1.55;0.52;;;;;;;;;;4972749;28;20585;-86
2022/05/25 06:56:53;;;;;;;0.88;0.57;;;;;;;;;;4951831;28;20407;-87
2022/05/25 06:59:19;;;;;;;0.30;0.30;;;;;;;;;;4946627;28;20042;-88
2022/05/25 07:01:46;;;;;;;0.73;0.40;;;;;;;;;;4959503;28;20582;-87
2022/05/25 07:04:12;;;;;;;0.60;0.30;;;;;;;;;;4964102;28;20039;-87
2022/05/25 07:06:39;;;;;;;0.93;0.35;;;;;;;;;;4956698;28;20066;-87
2022/05/25 07:09:06;;;;;;;0.20;0.20;;;;;;;;;;4958060;28;20296;-86
2022/05/25 07:11:33;;;;;;;0.20;0.10;;;;;;;;;;4967055;28;20556;-88
2022/05/25 07:13:59;;;;;;;0.20;0.10;;;;;;;;;;4965688;28;20484;-86
2022/05/25 07:16:26;;;;;;;0.22;0.20;;;;;;;;;;4962934;28;20038;-87
2022/05/25 07:18:52;;;;;;;0.22;0.22;;;;;;;;;;4961065;28;20046;-87
2022/05/25 07:21:25;;;;;;;0.52;0.38;;;;;;;;;;4938213;28;20407;-86
2022/05/25 07:23:52;;;;;;;1.33;0.68;;;;;;;;;;4966579;28;20035;-87
2022/05/25 07:26:19;;;;;;;1.08;0.95;;;;;;;;;;4950727;28;20169;-86
2022/05/25 07:28:46;;;;;;;0.90;0.40;;;;;;;;;;4941003;28;20523;-84
2022/05/25 07:31:18;;;;;;;0.55;0.30;;;;;;;;;;4954197;28;20089;-88
2022/05/25 07:33:47;;;;;;;0.45;0.45;;;;;;;;;;4951361;28;20046;-86
2022/05/25 07:36:13;;;;;;;0.20;0.10;;;;;;;;;;4965834;28;20065;-87
2022/05/25 07:38:42;;;;;;;0.30;0.30;;;;;;;;;;4950566;28;20073;-87
2022/05/25 07:41:09;;;;;;;0.40;0.30;;;;;;;;;;4946270;28;20035;-88
2022/05/25 07:43:35;;;;;;;0.85;0.22;;;;;;;;;;4951318;28;20038;-87
2022/05/25 07:46:02;;;;;;;0.30;0.20;;;;;;;;;;4968038;28;20527;-86
2022/05/25 07:48:28;;;;;;;1.00;0.65;;;;;;;;;;4950076;28;20520;-87
2022/05/25 07:50:54;;;;;;;0.45;0.17;;;;;;;;;;4935153;28;20117;-86
2022/05/25 07:56:05;;;;;;;0.20;0.20;;;;;;;;;;4966531;28;20057;-87
2022/05/25 07:58:32;;;;;;;0.20;0.10;;;;;;;;;;4940027;28;20121;-88
2022/05/25 08:01:00;;;;;;;1.33;0.60;;;;;;;;;;4952521;28;20440;-86
2022/05/25 08:06:10;;;;;;;0.40;0.28;;;;;;;;;;4951221;28;20042;-86
2022/05/25 08:08:37;;;;;;;0.20;0.13;;;;;;;;;;4944361;28;20495;-87
2022/05/25 08:11:11;;;;;;;0.20;0.10;;;;;;;;;;4951747;28;20479;-86
2022/05/25 08:13:39;;;;;;;0.90;0.40;;;;;;;;;;4963830;28;20394;-86
2022/05/25 08:16:05;;;;;;;0.65;0.20;;;;;;;;;;4946520;28;20511;-85
2022/05/25 08:18:31;;;;;;;0.65;0.63;;;;;;;;;;4957271;28;20050;-87
2022/05/25 08:20:57;;;;;;;0.20;0.10;;;;;;;;;;4941935;28;20034;-86
2022/05/25 08:23:23;;;;;;;0.63;0.47;;;;;;;;;;4959491;28;20565;-86
2022/05/25 08:25:50;;;;;;;0.63;0.40;;;;;;;;;;4958728;28;20038;-87
2022/05/25 08:28:16;;;;;;;0.20;0.13;;;;;;;;;;4965842;28;20458;-87
2022/05/25 08:30:43;;;;;;;1.63;0.43;;;;;;;;;;4962147;28;20089;-85
2022/05/25 08:33:10;;;;;;;2.70;0.85;;;;;;;;;;4969131;28;20035;-88
2022/05/25 08:35:36;;;;;;;0.30;0.30;;;;;;;;;;4930765;28;20538;-87
2022/05/25 08:38:03;;;;;;;0.22;0.15;;;;;;;;;;4964054;28;20046;-85
2022/05/25 08:40:31;;;;;;;0.47;0.30;;;;;;;;;;4957532;28;20483;-87
2022/05/25 08:43:08;;;;;;;0.20;0.10;;;;;;;;;;4961728;28;20050;-88
2022/05/25 08:45:39;;;;;;;0.20;0.20;;;;;;;;;;4985385;23;20045;-87
2022/05/25 08:48:06;;;;;;;0.20;0.10;;;;;;;;;;4989124;28;20512;-87
2022/05/25 08:50:33;;;;;;;0.75;0.55;;;;;;;;;;4987842;28;20057;-87
2022/05/25 08:53:00;;;;;;;0.52;0.52;;;;;;;;;;4990336;28;20043;-85
2022/05/25 08:55:36;;;;;;;0.20;0.10;;;;;;;;;;4999169;28;20053;-86
2022/05/25 08:58:03;;;;;;;2.05;0.43;;;;;;;;;;4989631;28;20129;-87
2022/05/25 09:00:29;;;;;;;0.28;0.17;;;;;;;;;;4979906;28;20045;-85
2022/05/25 09:03:07;;;;;;;0.47;0.35;;;;;;;;;;5004467;28;20076;-84
2022/05/25 09:05:52;;;;;;;0.30;0.30;;;;;;;;;;5001745;28;20037;-87
2022/05/25 09:08:27;;;;;;;0.20;0.10;;;;;;;;;;5004456;28;20037;-86
2022/05/25 09:10:58;;;;;;;0.20;0.20;;;;;;;;;;4986944;28;20446;-87
2022/05/25 09:13:28;;;;;;;0.30;0.30;;;;;;;;;;5003420;28;20091;-88
2022/05/25 09:18:42;;;;;;;0.30;0.20;;;;;;;;;;5004290;28;20037;-88
2022/05/25 09:21:08;;;;;;;0.20;0.10;;;;;;;;;;5000743;28;20030;-87
2022/05/25 09:23:35;;;;;;;0.22;0.22;;;;;;;;;;4986606;28;20037;-89
2022/05/25 09:26:01;;;;;;;0.20;0.10;;;;;;;;;;4989176;28;20051;-85
2022/05/25 09:28:35;;;;;;;0.20;0.20;;;;;;;;;;5012023;28;20037;-84
2022/05/25 09:31:03;;;;;;;0.20;0.10;;;;;;;;;;4988471;28;20338;-88
2022/05/25 09:33:32;;;;;;;0.20;0.10;;;;;;;;;;4996248;28;20238;-87
2022/05/25 09:36:02;;;;;;;0.40;0.10;;;;;;;;;;5008149;28;20029;-86
2022/05/25 09:38:31;;;;;;;0.20;0.10;;;;;;;;;;4983170;28;20041;-87
2022/05/25 09:41:03;;;;;;;0.30;0.30;;;;;;;;;;4988970;28;20037;-85
2022/05/25 09:43:30;;;;;;;0.20;0.10;;;;;;;;;;4985603;28;20444;-86
2022/05/25 09:45:58;;;;;;;0.20;0.05;;;;;;;;;;4990546;28;20486;-87
2022/05/25 09:48:25;;;;;;;0.20;0.13;;;;;;;;;;5008664;28;20069;-87
2022/05/25 09:50:52;;;;;;;0.88;0.40;;;;;;;;;;4989030;28;20041;-87
2022/05/25 09:53:21;;;;;;;0.20;0.10;;;;;;;;;;4984628;28;20045;-89
2022/05/25 09:55:51;;;;;;;0.28;0.17;;;;;;;;;;5008874;28;20501;-88
2022/05/25 09:58:32;;;;;;;0.20;0.20;;;;;;;;;;4985972;28;20528;-86
2022/05/25 10:01:05;;;;;;;0.20;0.20;;;;;;;;;;4989376;28;20045;-85
2022/05/25 10:03:41;;;;;;;0.30;0.20;;;;;;;;;;5008290;28;20297;-87
2022/05/25 10:06:24;;;;;;;0.20;0.10;;;13.20;99.90;;;;;;4985951;28;20041;-89
2022/05/25 10:09:12;;;;;;;0.20;0.10;;;17.00;99.90;;;;;;4993979;28;20025;-88
2022/05/25 10:11:59;;;;;;;0.20;0.20;;;16.90;99.90;;;;;;4978406;28;20059;-87
2022/05/25 10:14:35;;;;;;;0.28;0.28;;;16.90;99.90;;;;;;4989850;28;20096;-88
2022/05/25 10:17:31;;;;;;;0.45;0.25;;;16.90;99.90;;;;;;4992776;28;20398;-86
2022/05/25 10:19:59;;;;;;;0.40;0.30;;;16.90;99.90;;;;;;5000916;28;20056;-89
2022/05/25 10:22:42;;;;;;;0.30;0.20;;;17.00;99.90;;;;;;4987256;28;20046;-88
2022/05/25 10:25:20;;;;;;;0.30;0.30;;;17.00;99.90;;;;;;4980131;28;20033;-87
2022/05/25 10:27:48;;;;;;;0.40;0.30;;;17.00;99.90;;;;;;5011167;28;20175;-87
2022/05/25 10:39:53;;;;;;;0.30;0.20;;;16.80;99.90;;;;;;5022772;28;20039;-87
2022/05/25 10:42:45;;;;;;;0.20;0.20;;;16.80;99.90;;;;;;5007511;28;20379;-89
2022/05/25 10:45:11;;;;;;;0.20;0.10;;;16.90;99.90;;;;;;4995303;28;20073;-88
2022/05/25 10:47:46;;;;;;;0.57;0.35;;;17.00;99.90;;;;;;4988383;28;20160;-88
2022/05/25 10:50:46;;;;;;;0.43;0.20;;;17.00;99.90;;;;;;4979612;28;20033;-89
2022/05/25 10:53:41;;;;;;;0.38;0.25;;;16.90;99.90;;;;;;4987148;28;20501;-85
2022/05/25 10:56:28;;;;;;;0.50;0.50;;;16.90;99.90;;;;;;4994184;28;20036;-86
2022/05/25 10:59:21;;;;;;;0.35;0.20;;;16.90;99.90;;;;;;4987139;28;20395;-86
2022/05/25 11:02:13;;;;;;;0.20;0.10;;;17.00;99.90;;;;;;4983370;28;20080;-87
2022/05/25 11:04:55;;;;;;;6.55;0.30;;;17.10;99.90;;;;;;4982454;28;20037;-85
2022/05/25 11:07:27;;;;;;;0.30;0.28;;;17.30;99.90;;;;;;4987844;28;20785;-86
2022/05/25 11:10:23;;;;;;;1.48;0.52;;;17.40;99.90;;;;;;4986942;28;20797;-84
2022/05/25 11:13:14;;;;;;;0.28;0.20;;;17.40;99.90;;;;;;5010350;28;20092;-87
2022/05/25 11:16:17;;;;;;;1.05;0.40;;;17.40;99.90;;;;;;5003358;28;20048;-85
2022/05/25 11:19:01;;;;;;;0.28;0.28;;;17.40;99.90;;;;;;5006307;28;20045;-86
2022/05/25 11:21:42;;;;;;;0.30;0.30;;;17.50;99.90;;;;;;4981253;28;20037;-86
2022/05/25 11:24:08;;;;;;;0.20;0.10;;;;;;;;;;5005791;28;20115;-86
2022/05/25 11:26:52;;;;;;;0.20;0.10;;;;;;;;;;5007574;28;20040;-85
2022/05/25 11:29:36;;;;;;;1.23;0.20;;;;;;;;;;4993424;28;20029;-86
2022/05/25 11:32:05;;;;;;;0.20;0.10;;;;;;;;;;5001407;28;20033;-85
2022/05/25 11:34:36;;;;;;;0.20;0.10;;;;;;;;;;4987372;28;20041;-85
2022/05/25 11:37:26;;;;;;;0.20;0.15;;;17.60;99.90;;;;;;5005086;28;20050;-83
2022/05/25 11:40:19;;;;;;;0.35;0.20;;;18.10;99.90;;;;;;4984978;28;20037;-85
2022/05/25 11:42:58;;;;;;;9.63;0.40;;;18.00;99.90;;;;;;4999751;28;20040;-88
2022/05/25 11:45:40;;;;;;;0.20;0.10;;;18.00;99.90;;;;;;4989373;28;20449;-84
2022/05/25 11:48:21;;;;;;;0.40;0.30;;;18.00;99.90;;;;;;4987449;28;20114;-86
2022/05/25 11:51:02;;;;;;;0.22;0.22;;;18.00;99.90;;;;;;4990798;28;20041;-87
2022/05/25 11:53:46;;;;;;;0.20;0.10;;;17.90;99.90;;;;;;4996527;28;20063;-86
2022/05/25 11:56:15;;;;;;;0.20;0.20;;;;;;;;;;5009803;28;20804;-85
2022/05/25 11:59:21;;;;;;;0.63;0.52;;;17.80;99.90;;;;;;5013135;28;20406;-87
2022/05/25 12:02:20;;;;;;;0.88;0.20;;;17.50;94.70;;;;;;5005619;28;20120;-86
2022/05/25 12:05:10;;;;;;;0.20;0.10;;;17.50;96.60;;;;;;4980097;28;20153;-85
2022/05/25 12:08:05;;;;;;;0.20;0.10;;;17.40;97.90;;;;;;4991332;28;20250;-85
2022/05/25 12:10:38;;;;;;;0.47;0.47;;;17.20;99.90;;;;;;4997627;28;20117;-87
2022/05/25 12:13:25;;;;;;;0.20;0.17;;;17.10;99.90;;;;;;5008314;28;20104;-86
2022/05/25 12:19:41;;;;;;;0.43;0.22;;;16.90;99.90;;;;;;5002450;28;20045;-85
2022/05/25 12:22:11;;;;;;;2.30;0.30;;;16.10;99.90;;;;;;5006314;28;20049;-85
2022/05/25 12:24:48;;;;;;;0.25;0.20;;;15.40;99.90;;;;;;4984203;28;20038;-85
2022/05/25 12:27:19;;;;;;;0.20;0.10;;;;;;;;;;5001548;28;20547;-85
2022/05/25 12:29:50;;;;;;;1.92;0.70;;;;;;;;;;5006927;28;20041;-84
2022/05/25 12:32:17;;;;;;;0.20;0.20;;;;;;;;;;4988536;28;20129;-84
2022/05/25 12:34:48;;;;;;;0.40;0.20;;;;;;;;;;4983547;28;20045;-84
2022/05/25 12:37:15;;;;;;;0.30;0.17;;;;;;;;;;4987287;28;20045;-84
2022/05/25 12:39:47;;;;;;;0.20;0.10;;;;;;;;;;4987225;28;20065;-84
2022/05/25 12:42:22;;;;;;;0.20;0.10;;;;;;;;;;4995367;28;20037;-83
2022/05/25 12:50:38;;;;;;;0.20;0.20;;;;;;;;;;5007300;28;20063;-85
2022/05/25 12:53:23;;;;;;;0.20;0.10;;;;;;;;;;4989784;28;20030;-85
2022/05/25 12:55:56;;;;;;;0.30;0.20;;;;;;;;;;4990672;28;20041;-85
2022/05/25 12:58:32;;;;;;;0.20;0.10;;;;;;;;;;4994506;28;20068;-88
2022/05/25 13:01:17;;;;;;;0.43;0.38;;;;;;;;;;4984309;28;20073;-87
2022/05/25 13:03:46;;;;;;;0.20;0.10;;;;;;;;;;4990997;28;20046;-86
2022/05/25 13:06:13;;;;;;;0.20;0.10;;;;;;;;;;5011059;28;20033;-87
2022/05/25 13:08:48;;;;;;;0.30;0.30;;;;;;;;;;4991610;28;20040;-88
2022/05/25 13:11:33;;;;;;;0.68;0.40;;;;;;;;;;4993765;28;20034;-86
2022/05/25 13:14:01;;;;;;;0.20;0.17;;;;;;;;;;4992180;28;20121;-90
2022/05/25 13:16:42;;;;;;;0.20;0.10;;;;;;;;;;4992897;28;20049;-85
2022/05/25 13:19:18;;;;;;;0.20;0.10;;;;;;;;;;4993445;28;20037;-89
2022/05/25 13:22:06;;;;;;;0.20;0.20;;;;;;;;;;4995300;28;20057;-88
2022/05/25 13:24:52;;;;;;;0.20;0.20;;;;;;;;;;4990020;28;20119;-85
2022/05/25 13:27:21;;;;;;;0.20;0.10;;;;;;;;;;4997445;28;20248;-85
2022/05/25 13:30:03;;;;;;;0.20;0.10;;;;;;;;;;5009098;28;20077;-86
2022/05/25 13:32:52;;;;;;;0.20;0.10;;;15.00;99.90;;;;;;5010550;28;20095;-87
2022/05/25 13:35:24;;;;;;;0.20;0.10;;;17.00;99.90;;;;;;4997258;28;20560;-83
2022/05/25 13:38:07;;;;;;;16.45;0.38;;;17.10;99.90;;;;;;4993158;28;20368;-88
2022/05/25 13:40:49;;;;;;;0.20;0.17;;;17.10;99.90;;;;;;4994881;28;20124;-85
2022/05/25 13:43:50;;;;;;;0.20;0.10;;;17.10;99.90;;;;;;5017154;28;20038;-90
2022/05/25 13:46:52;;;;;;;0.20;0.13;;;17.10;99.90;;;;;;5005261;28;20046;-85
2022/05/25 13:49:43;;;;;;;0.30;0.20;;;17.20;99.90;;;;;;4976670;28;20056;-87
2022/05/25 13:52:30;;;;;;;0.20;0.10;;;17.30;99.90;;;;;;4988157;28;20646;-87
2022/05/25 13:54:59;;;;;;;0.20;0.10;;;17.50;99.90;;;;;;4999999;28;20526;-87
2022/05/25 13:57:32;;;;;;;0.20;0.10;;;17.60;99.90;;;;;;4992004;28;20496;-83
2022/05/25 14:00:12;;;;;;;0.20;0.10;;;17.60;99.90;;;;;;4984665;28;20128;-84
2022/05/25 14:03:04;;;;;;;0.20;0.20;;;17.60;99.90;;;;;;5005230;28;20037;-88
2022/05/25 14:05:48;;;;;;;0.20;0.10;;;17.50;99.90;;;;;;5000494;28;20615;-86
2022/05/25 14:10:54;;;;;;;0.20;0.10;;;17.60;99.90;;;;;;4985299;28;20025;-85
2022/05/25 14:11:16;;;;;;;0.20;0.17;;;17.70;99.90;;;;;;5002252;28;20053;-85
2022/05/25 14:13:46;;;;;;;0.20;0.10;;;17.70;99.90;;;;;;4994829;28;20048;-88
2022/05/25 14:16:26;;;;;;;0.20;0.10;;;17.70;99.90;;;;;;5004545;28;20033;-84
2022/05/25 14:19:01;;;;;;;0.20;0.10;;;17.70;99.90;;;;;;5003290;28;20037;-84
2022/05/25 14:21:49;;;;;;;0.20;0.08;;;17.70;99.90;;;;;;4984893;28;20045;-87
2022/05/25 14:24:27;;;;;;;0.20;0.13;;;17.60;99.90;;;;;;5007368;28;20113;-85
2022/05/25 14:27:01;;;;;;;0.20;0.10;;;17.50;97.20;;;;;;5005714;28;20041;-89
2022/05/25 14:29:30;;;;;;;0.20;0.10;;;17.50;92.60;;;;;;4990225;28;20166;-89
2022/05/25 14:32:28;;;;;;;0.20;0.10;;;17.40;99.90;;;;;;4983369;28;20135;-87
2022/05/25 14:35:00;;;;;;;0.20;0.10;;;17.40;99.90;;;;;;5000818;28;20137;-84
2022/05/25 14:37:59;;;;;;;0.20;0.10;;;17.30;97.40;;;;;;5000972;28;21382;-88
2022/05/25 14:40:30;;;;;;;;;;;17.30;96.60;;;;;;5002423;28;20041;-87
2022/05/25 14:43:02;;;;;;;0.20;0.10;;;17.30;99.90;;;;;;5004799;28;20129;-86
2022/05/25 14:45:29;;;;;;;0.20;0.10;;;17.20;99.90;;;;;;5002225;28;20494;-87
2022/05/25 14:48:06;;;;;;;0.20;0.10;;;17.20;99.90;;;;;;4995613;28;20041;-86
2022/05/25 14:50:44;;;;;;;0.20;0.10;;;17.20;99.90;;;;;;4985230;28;20252;-88
2022/05/25 14:53:18;;;;;;;0.20;0.10;;;17.30;96.20;;;;;;4989799;28;20495;-87
2022/05/25 14:55:47;;;;;;;0.20;0.10;;;17.30;91.70;;;;;;4984927;28;20045;-87
2022/05/25 14:58:12;;;;;;;0.20;0.10;;;17.30;99.90;;;;;;4994072;28;20037;-86
2022/05/25 15:00:52;;;;;;;0.20;0.10;;;17.30;97.10;;;;;;4991661;28;20525;-85
2022/05/25 15:03:52;;;;;;;0.20;0.10;;;17.30;99.90;;;;;;4993496;28;20085;-84
2022/05/25 15:06:20;;;;;;;0.20;0.10;;;17.40;97.70;;;;;;5008625;28;20107;-87
2022/05/25 15:08:52;;;;;;;0.20;0.10;;;17.40;99.90;;;;;;4996600;28;20041;-91
2022/05/25 15:11:27;;;;;;;0.20;0.10;;;17.30;96.40;;;;;;5001017;28;20403;-88
2022/05/25 15:20:21;;;;;;;0.20;0.10;;;17.30;97.80;;;;;;5012916;28;20068;-89
2022/05/25 15:23:00;;;;;;;0.20;0.10;;;17.20;99.90;;;;;;4996816;28;20048;-85